< < Back
Terminal Aerodrome Forecast


Current Version              Previous Versions:   1  2  3  4  5  6  7  8  9  

Terminal Aerodrome Forecast

264
FTUS42 KFFC 221122
TAFMCN
TAF
KMCN 221122Z 2212/2312 08004KT P6SM FEW250
     FM221400 08007KT P6SM SCT045
     FM221800 08008KT P6SM BKN045
     FM222300 08007KT P6SM BKN035
     FM230300 08006KT P6SM OVC018
     FM230600 07008KT 4SM -RA BR OVC007=

Latest METAR

217
SAUS80 KWBC 230100 RRB
MTRMCN
METAR KMCN 230053Z 05007KT 9SM -RA OVC036 11/09 A3026 RMK AO2 SLP246
P0002 T01110089


USA.gov is the U.S. government's official web portal to all federal, state and local government web resources and services.